sensor_id;sensor_type;location;lat;lon;timestamp;P1;durP1;ratioP1;P2;durP2;ratioP2
14251;SDS011;7210;51.502;10.722;2024-02-26T00:01:38;7.63;;;4.97;;
14251;SDS011;7210;51.502;10.722;2024-02-26T00:04:06;7.53;;;5.20;;
14251;SDS011;7210;51.502;10.722;2024-02-26T00:09:24;6.17;;;5.30;;
14251;SDS011;7210;51.502;10.722;2024-02-26T00:11:51;8.90;;;5.30;;
14251;SDS011;7210;51.502;10.722;2024-02-26T00:14:18;6.47;;;4.93;;
14251;SDS011;7210;51.502;10.722;2024-02-26T00:16:50;6.13;;;5.40;;
14251;SDS011;7210;51.502;10.722;2024-02-26T00:19:18;6.47;;;5.53;;
14251;SDS011;7210;51.502;10.722;2024-02-26T00:21:50;6.57;;;5.53;;
14251;SDS011;7210;51.502;10.722;2024-02-26T00:24:18;6.00;;;5.10;;
14251;SDS011;7210;51.502;10.722;2024-02-26T00:26:45;6.70;;;5.60;;
14251;SDS011;7210;51.502;10.722;2024-02-26T00:29:18;7.83;;;5.77;;
14251;SDS011;7210;51.502;10.722;2024-02-26T00:31:45;10.80;;;6.73;;
14251;SDS011;7210;51.502;10.722;2024-02-26T00:34:12;8.40;;;6.20;;
14251;SDS011;7210;51.502;10.722;2024-02-26T00:36:40;6.73;;;5.80;;
14251;SDS011;7210;51.502;10.722;2024-02-26T00:39:07;8.90;;;6.43;;
14251;SDS011;7210;51.502;10.722;2024-02-26T00:41:37;7.33;;;6.17;;
14251;SDS011;7210;51.502;10.722;2024-02-26T00:44:06;8.23;;;6.63;;
14251;SDS011;7210;51.502;10.722;2024-02-26T00:46:33;8.80;;;6.93;;
14251;SDS011;7210;51.502;10.722;2024-02-26T00:49:00;8.83;;;6.10;;
14251;SDS011;7210;51.502;10.722;2024-02-26T00:51:32;7.70;;;6.63;;
14251;SDS011;7210;51.502;10.722;2024-02-26T00:54:00;7.60;;;6.30;;
14251;SDS011;7210;51.502;10.722;2024-02-26T00:56:28;6.63;;;5.80;;
14251;SDS011;7210;51.502;10.722;2024-02-26T00:58:55;8.33;;;6.60;;
14251;SDS011;7210;51.502;10.722;2024-02-26T01:01:32;6.60;;;5.90;;
14251;SDS011;7210;51.502;10.722;2024-02-26T01:04:02;7.30;;;6.10;;
14251;SDS011;7210;51.502;10.722;2024-02-26T01:06:29;8.47;;;6.20;;
14251;SDS011;7210;51.502;10.722;2024-02-26T01:08:56;7.27;;;6.27;;
14251;SDS011;7210;51.502;10.722;2024-02-26T01:11:25;7.23;;;6.07;;
14251;SDS011;7210;51.502;10.722;2024-02-26T01:13:54;9.23;;;6.37;;
14251;SDS011;7210;51.502;10.722;2024-02-26T01:16:22;8.23;;;6.33;;
14251;SDS011;7210;51.502;10.722;2024-02-26T01:18:50;8.77;;;6.20;;
14251;SDS011;7210;51.502;10.722;2024-02-26T01:21:17;7.67;;;6.23;;
14251;SDS011;7210;51.502;10.722;2024-02-26T01:23:44;6.43;;;5.70;;
14251;SDS011;7210;51.502;10.722;2024-02-26T01:26:11;8.83;;;6.77;;
14251;SDS011;7210;51.502;10.722;2024-02-26T01:28:39;5.97;;;5.37;;
14251;SDS011;7210;51.502;10.722;2024-02-26T01:31:07;7.60;;;6.37;;
14251;SDS011;7210;51.502;10.722;2024-02-26T01:33:35;7.60;;;5.90;;
14251;SDS011;7210;51.502;10.722;2024-02-26T01:36:03;8.60;;;6.50;;
14251;SDS011;7210;51.502;10.722;2024-02-26T01:38:32;7.37;;;6.20;;
14251;SDS011;7210;51.502;10.722;2024-02-26T01:40:59;7.17;;;5.90;;
14251;SDS011;7210;51.502;10.722;2024-02-26T01:43:26;7.43;;;5.77;;
14251;SDS011;7210;51.502;10.722;2024-02-26T01:45:55;7.10;;;5.53;;
14251;SDS011;7210;51.502;10.722;2024-02-26T01:48:22;6.83;;;5.43;;
14251;SDS011;7210;51.502;10.722;2024-02-26T01:50:49;7.30;;;5.93;;
14251;SDS011;7210;51.502;10.722;2024-02-26T01:53:20;6.13;;;5.23;;
14251;SDS011;7210;51.502;10.722;2024-02-26T01:55:48;7.17;;;5.57;;
14251;SDS011;7210;51.502;10.722;2024-02-26T01:58:15;6.70;;;5.70;;
14251;SDS011;7210;51.502;10.722;2024-02-26T02:00:43;7.07;;;5.77;;
14251;SDS011;7210;51.502;10.722;2024-02-26T02:03:15;6.37;;;5.43;;
14251;SDS011;7210;51.502;10.722;2024-02-26T02:05:42;8.67;;;5.90;;
14251;SDS011;7210;51.502;10.722;2024-02-26T02:08:10;6.93;;;5.30;;
14251;SDS011;7210;51.502;10.722;2024-02-26T02:10:37;6.10;;;5.50;;
14251;SDS011;7210;51.502;10.722;2024-02-26T02:13:05;6.47;;;5.63;;
14251;SDS011;7210;51.502;10.722;2024-02-26T02:15:33;7.20;;;5.83;;
14251;SDS011;7210;51.502;10.722;2024-02-26T02:18:00;6.83;;;5.87;;
14251;SDS011;7210;51.502;10.722;2024-02-26T02:20:32;7.00;;;5.80;;
14251;SDS011;7210;51.502;10.722;2024-02-26T02:23:00;7.53;;;5.53;;
14251;SDS011;7210;51.502;10.722;2024-02-26T02:25:27;6.70;;;6.00;;
14251;SDS011;7210;51.502;10.722;2024-02-26T02:27:55;6.47;;;5.73;;
14251;SDS011;7210;51.502;10.722;2024-02-26T02:30:23;6.00;;;5.33;;
14251;SDS011;7210;51.502;10.722;2024-02-26T02:32:54;6.90;;;6.13;;
14251;SDS011;7210;51.502;10.722;2024-02-26T02:35:23;6.20;;;5.60;;
14251;SDS011;7210;51.502;10.722;2024-02-26T02:37:52;6.10;;;5.47;;
14251;SDS011;7210;51.502;10.722;2024-02-26T02:40:19;7.07;;;6.20;;
14251;SDS011;7210;51.502;10.722;2024-02-26T02:42:46;6.70;;;5.30;;
14251;SDS011;7210;51.502;10.722;2024-02-26T02:45:13;7.10;;;5.63;;
14251;SDS011;7210;51.502;10.722;2024-02-26T02:47:41;5.80;;;5.20;;
14251;SDS011;7210;51.502;10.722;2024-02-26T02:50:14;7.07;;;5.90;;
14251;SDS011;7210;51.502;10.722;2024-02-26T02:52:41;6.77;;;5.70;;
14251;SDS011;7210;51.502;10.722;2024-02-26T02:55:09;6.07;;;5.47;;
14251;SDS011;7210;51.502;10.722;2024-02-26T02:57:37;6.17;;;4.93;;
14251;SDS011;7210;51.502;10.722;2024-02-26T03:00:06;6.53;;;5.83;;
14251;SDS011;7210;51.502;10.722;2024-02-26T03:02:38;6.33;;;5.50;;
14251;SDS011;7210;51.502;10.722;2024-02-26T03:05:05;6.00;;;4.97;;
14251;SDS011;7210;51.502;10.722;2024-02-26T03:07:33;6.33;;;5.30;;
14251;SDS011;7210;51.502;10.722;2024-02-26T03:10:00;6.13;;;5.47;;
14251;SDS011;7210;51.502;10.722;2024-02-26T03:12:29;5.70;;;5.03;;
14251;SDS011;7210;51.502;10.722;2024-02-26T03:14:57;7.17;;;5.13;;
14251;SDS011;7210;51.502;10.722;2024-02-26T03:17:25;6.13;;;5.20;;
14251;SDS011;7210;51.502;10.722;2024-02-26T03:19:52;6.00;;;4.80;;
14251;SDS011;7210;51.502;10.722;2024-02-26T03:22:20;5.70;;;5.10;;
14251;SDS011;7210;51.502;10.722;2024-02-26T03:24:47;6.77;;;4.83;;
14251;SDS011;7210;51.502;10.722;2024-02-26T03:27:14;5.13;;;4.63;;
14251;SDS011;7210;51.502;10.722;2024-02-26T03:29:42;4.83;;;4.10;;
14251;SDS011;7210;51.502;10.722;2024-02-26T03:32:09;5.70;;;4.80;;
14251;SDS011;7210;51.502;10.722;2024-02-26T03:34:38;4.83;;;4.33;;
14251;SDS011;7210;51.502;10.722;2024-02-26T03:37:05;4.07;;;3.40;;
14251;SDS011;7210;51.502;10.722;2024-02-26T03:39:34;3.70;;;3.33;;
14251;SDS011;7210;51.502;10.722;2024-02-26T03:42:01;2.90;;;2.40;;
14251;SDS011;7210;51.502;10.722;2024-02-26T03:44:32;3.57;;;3.00;;
14251;SDS011;7210;51.502;10.722;2024-02-26T03:47:00;3.90;;;3.30;;
14251;SDS011;7210;51.502;10.722;2024-02-26T03:49:32;6.60;;;4.77;;
14251;SDS011;7210;51.502;10.722;2024-02-26T03:52:02;5.73;;;5.03;;
14251;SDS011;7210;51.502;10.722;2024-02-26T03:54:29;6.57;;;5.27;;
14251;SDS011;7210;51.502;10.722;2024-02-26T03:56:56;6.17;;;5.10;;
14251;SDS011;7210;51.502;10.722;2024-02-26T03:59:26;8.37;;;5.80;;
14251;SDS011;7210;51.502;10.722;2024-02-26T04:01:53;7.13;;;5.73;;
14251;SDS011;7210;51.502;10.722;2024-02-26T04:04:21;6.47;;;5.77;;
14251;SDS011;7210;51.502;10.722;2024-02-26T04:06:48;6.63;;;5.97;;
14251;SDS011;7210;51.502;10.722;2024-02-26T04:09:15;6.27;;;5.63;;
14251;SDS011;7210;51.502;10.722;2024-02-26T04:11:42;6.40;;;5.80;;
14251;SDS011;7210;51.502;10.722;2024-02-26T04:14:10;6.30;;;5.30;;
14251;SDS011;7210;51.502;10.722;2024-02-26T04:16:37;7.23;;;5.60;;
14251;SDS011;7210;51.502;10.722;2024-02-26T04:19:04;6.57;;;5.93;;
14251;SDS011;7210;51.502;10.722;2024-02-26T04:21:33;8.57;;;6.03;;
14251;SDS011;7210;51.502;10.722;2024-02-26T04:24:01;6.40;;;5.80;;
14251;SDS011;7210;51.502;10.722;2024-02-26T04:26:29;6.97;;;6.00;;
14251;SDS011;7210;51.502;10.722;2024-02-26T04:28:57;6.93;;;5.80;;
14251;SDS011;7210;51.502;10.722;2024-02-26T04:31:24;7.10;;;5.33;;
14251;SDS011;7210;51.502;10.722;2024-02-26T04:33:51;7.33;;;5.30;;
14251;SDS011;7210;51.502;10.722;2024-02-26T04:36:19;5.67;;;5.10;;
14251;SDS011;7210;51.502;10.722;2024-02-26T04:38:47;6.43;;;5.03;;
14251;SDS011;7210;51.502;10.722;2024-02-26T04:41:14;6.47;;;5.40;;
14251;SDS011;7210;51.502;10.722;2024-02-26T04:43:41;5.80;;;5.17;;
14251;SDS011;7210;51.502;10.722;2024-02-26T04:46:09;6.30;;;5.60;;
14251;SDS011;7210;51.502;10.722;2024-02-26T04:48:36;5.90;;;5.30;;
14251;SDS011;7210;51.502;10.722;2024-02-26T04:51:04;6.60;;;5.83;;
14251;SDS011;7210;51.502;10.722;2024-02-26T04:53:32;7.30;;;6.23;;
14251;SDS011;7210;51.502;10.722;2024-02-26T04:56:00;6.87;;;5.53;;
14251;SDS011;7210;51.502;10.722;2024-02-26T04:58:28;7.07;;;5.33;;
14251;SDS011;7210;51.502;10.722;2024-02-26T05:00:55;5.50;;;5.00;;
14251;SDS011;7210;51.502;10.722;2024-02-26T05:03:22;6.87;;;5.90;;
14251;SDS011;7210;51.502;10.722;2024-02-26T05:05:49;6.90;;;6.20;;
14251;SDS011;7210;51.502;10.722;2024-02-26T05:08:20;5.83;;;5.23;;
14251;SDS011;7210;51.502;10.722;2024-02-26T05:10:50;7.27;;;5.90;;
14251;SDS011;7210;51.502;10.722;2024-02-26T05:13:18;8.90;;;6.83;;
14251;SDS011;7210;51.502;10.722;2024-02-26T05:15:45;7.80;;;7.00;;
14251;SDS011;7210;51.502;10.722;2024-02-26T05:18:14;7.67;;;6.33;;
14251;SDS011;7210;51.502;10.722;2024-02-26T05:20:44;7.03;;;6.33;;
14251;SDS011;7210;51.502;10.722;2024-02-26T05:23:11;6.67;;;5.97;;
14251;SDS011;7210;51.502;10.722;2024-02-26T05:25:44;8.10;;;6.20;;
14251;SDS011;7210;51.502;10.722;2024-02-26T05:28:14;7.37;;;6.50;;
14251;SDS011;7210;51.502;10.722;2024-02-26T05:30:43;6.87;;;6.17;;
14251;SDS011;7210;51.502;10.722;2024-02-26T05:33:10;7.50;;;5.73;;
14251;SDS011;7210;51.502;10.722;2024-02-26T05:35:37;9.63;;;6.70;;
14251;SDS011;7210;51.502;10.722;2024-02-26T05:38:05;6.60;;;5.97;;
14251;SDS011;7210;51.502;10.722;2024-02-26T05:40:32;7.17;;;6.47;;
14251;SDS011;7210;51.502;10.722;2024-02-26T05:42:59;8.17;;;6.73;;
14251;SDS011;7210;51.502;10.722;2024-02-26T05:45:27;7.03;;;6.33;;
14251;SDS011;7210;51.502;10.722;2024-02-26T05:47:55;9.43;;;6.90;;
14251;SDS011;7210;51.502;10.722;2024-02-26T05:50:22;8.63;;;6.50;;
14251;SDS011;7210;51.502;10.722;2024-02-26T05:52:49;9.07;;;7.27;;
14251;SDS011;7210;51.502;10.722;2024-02-26T05:55:16;8.43;;;7.30;;
14251;SDS011;7210;51.502;10.722;2024-02-26T05:57:43;10.07;;;7.63;;
14251;SDS011;7210;51.502;10.722;2024-02-26T06:00:11;8.90;;;7.17;;
14251;SDS011;7210;51.502;10.722;2024-02-26T06:02:44;10.47;;;7.73;;
14251;SDS011;7210;51.502;10.722;2024-02-26T06:05:12;9.80;;;7.10;;
14251;SDS011;7210;51.502;10.722;2024-02-26T06:07:39;9.13;;;6.83;;
14251;SDS011;7210;51.502;10.722;2024-02-26T06:10:07;7.73;;;6.93;;
14251;SDS011;7210;51.502;10.722;2024-02-26T06:12:38;9.03;;;8.10;;
14251;SDS011;7210;51.502;10.722;2024-02-26T06:15:05;8.43;;;7.57;;
14251;SDS011;7210;51.502;10.722;2024-02-26T06:17:33;8.80;;;7.83;;
14251;SDS011;7210;51.502;10.722;2024-02-26T06:20:00;9.00;;;7.20;;
14251;SDS011;7210;51.502;10.722;2024-02-26T06:22:30;7.83;;;6.97;;
14251;SDS011;7210;51.502;10.722;2024-02-26T06:24:58;7.40;;;6.67;;
14251;SDS011;7210;51.502;10.722;2024-02-26T06:27:25;12.23;;;7.23;;
14251;SDS011;7210;51.502;10.722;2024-02-26T06:29:52;9.73;;;7.80;;
14251;SDS011;7210;51.502;10.722;2024-02-26T06:32:19;8.77;;;7.87;;
14251;SDS011;7210;51.502;10.722;2024-02-26T06:34:48;9.73;;;7.53;;
14251;SDS011;7210;51.502;10.722;2024-02-26T06:37:15;9.07;;;7.07;;
14251;SDS011;7210;51.502;10.722;2024-02-26T06:39:43;9.33;;;7.63;;
14251;SDS011;7210;51.502;10.722;2024-02-26T06:42:11;12.70;;;7.97;;
14251;SDS011;7210;51.502;10.722;2024-02-26T06:44:44;9.40;;;7.80;;
14251;SDS011;7210;51.502;10.722;2024-02-26T06:47:12;12.40;;;9.60;;
14251;SDS011;7210;51.502;10.722;2024-02-26T06:49:39;11.57;;;8.87;;
14251;SDS011;7210;51.502;10.722;2024-02-26T06:52:06;9.77;;;7.77;;
14251;SDS011;7210;51.502;10.722;2024-02-26T06:54:38;7.60;;;5.77;;
14251;SDS011;7210;51.502;10.722;2024-02-26T06:57:06;7.23;;;6.33;;
14251;SDS011;7210;51.502;10.722;2024-02-26T06:59:34;9.50;;;7.57;;
14251;SDS011;7210;51.502;10.722;2024-02-26T07:02:01;17.10;;;12.13;;
14251;SDS011;7210;51.502;10.722;2024-02-26T07:04:28;16.33;;;11.87;;
14251;SDS011;7210;51.502;10.722;2024-02-26T07:06:57;64.30;;;40.23;;
14251;SDS011;7210;51.502;10.722;2024-02-26T07:09:24;39.17;;;27.13;;
14251;SDS011;7210;51.502;10.722;2024-02-26T07:11:51;26.67;;;19.67;;
14251;SDS011;7210;51.502;10.722;2024-02-26T07:14:19;15.93;;;12.10;;
14251;SDS011;7210;51.502;10.722;2024-02-26T07:16:46;12.33;;;8.63;;
14251;SDS011;7210;51.502;10.722;2024-02-26T07:19:13;9.77;;;8.10;;
14251;SDS011;7210;51.502;10.722;2024-02-26T07:21:41;10.03;;;8.73;;
14251;SDS011;7210;51.502;10.722;2024-02-26T07:24:08;10.63;;;8.87;;
14251;SDS011;7210;51.502;10.722;2024-02-26T07:26:35;12.43;;;9.70;;
14251;SDS011;7210;51.502;10.722;2024-02-26T07:29:02;12.23;;;9.93;;
14251;SDS011;7210;51.502;10.722;2024-02-26T07:31:31;10.60;;;8.70;;
14251;SDS011;7210;51.502;10.722;2024-02-26T07:33:58;10.60;;;9.30;;
14251;SDS011;7210;51.502;10.722;2024-02-26T07:36:25;16.53;;;13.07;;
14251;SDS011;7210;51.502;10.722;2024-02-26T07:38:52;16.23;;;12.80;;
14251;SDS011;7210;51.502;10.722;2024-02-26T07:41:19;14.57;;;11.87;;
14251;SDS011;7210;51.502;10.722;2024-02-26T07:43:46;16.83;;;11.60;;
14251;SDS011;7210;51.502;10.722;2024-02-26T07:46:14;17.33;;;12.27;;
14251;SDS011;7210;51.502;10.722;2024-02-26T07:48:43;17.00;;;13.77;;
14251;SDS011;7210;51.502;10.722;2024-02-26T07:51:11;15.53;;;12.23;;
14251;SDS011;7210;51.502;10.722;2024-02-26T07:53:39;14.77;;;12.47;;
14251;SDS011;7210;51.502;10.722;2024-02-26T07:56:07;14.17;;;11.57;;
14251;SDS011;7210;51.502;10.722;2024-02-26T07:58:35;14.30;;;11.43;;
14251;SDS011;7210;51.502;10.722;2024-02-26T08:01:02;13.60;;;11.00;;
14251;SDS011;7210;51.502;10.722;2024-02-26T08:03:30;12.30;;;10.30;;
14251;SDS011;7210;51.502;10.722;2024-02-26T08:06:03;13.93;;;10.10;;
14251;SDS011;7210;51.502;10.722;2024-02-26T08:08:31;12.07;;;9.70;;
14251;SDS011;7210;51.502;10.722;2024-02-26T08:10:58;12.57;;;9.90;;
14251;SDS011;7210;51.502;10.722;2024-02-26T08:13:26;13.00;;;9.97;;
14251;SDS011;7210;51.502;10.722;2024-02-26T08:15:55;10.40;;;9.07;;
14251;SDS011;7210;51.502;10.722;2024-02-26T08:18:22;11.03;;;9.93;;
14251;SDS011;7210;51.502;10.722;2024-02-26T08:20:50;13.13;;;10.80;;
14251;SDS011;7210;51.502;10.722;2024-02-26T08:23:18;12.07;;;9.83;;
14251;SDS011;7210;51.502;10.722;2024-02-26T08:25:45;14.53;;;9.83;;
14251;SDS011;7210;51.502;10.722;2024-02-26T08:28:13;13.90;;;11.13;;
14251;SDS011;7210;51.502;10.722;2024-02-26T08:30:43;17.63;;;12.20;;
14251;SDS011;7210;51.502;10.722;2024-02-26T08:33:10;14.80;;;12.83;;
14251;SDS011;7210;51.502;10.722;2024-02-26T08:35:38;17.93;;;12.97;;
14251;SDS011;7210;51.502;10.722;2024-02-26T08:38:05;19.60;;;14.80;;
14251;SDS011;7210;51.502;10.722;2024-02-26T08:40:34;25.00;;;21.07;;
14251;SDS011;7210;51.502;10.722;2024-02-26T08:43:01;30.27;;;24.13;;
14251;SDS011;7210;51.502;10.722;2024-02-26T08:45:28;19.63;;;16.37;;
14251;SDS011;7210;51.502;10.722;2024-02-26T08:47:55;16.13;;;13.43;;
14251;SDS011;7210;51.502;10.722;2024-02-26T08:50:23;18.77;;;14.70;;
14251;SDS011;7210;51.502;10.722;2024-02-26T08:52:50;18.47;;;14.93;;
14251;SDS011;7210;51.502;10.722;2024-02-26T08:55:18;18.23;;;15.50;;
14251;SDS011;7210;51.502;10.722;2024-02-26T08:57:47;21.07;;;16.70;;
14251;SDS011;7210;51.502;10.722;2024-02-26T09:00:14;21.70;;;17.23;;
14251;SDS011;7210;51.502;10.722;2024-02-26T09:02:56;22.43;;;16.13;;
14251;SDS011;7210;51.502;10.722;2024-02-26T09:05:26;18.27;;;15.90;;
14251;SDS011;7210;51.502;10.722;2024-02-26T09:07:53;16.63;;;14.83;;
14251;SDS011;7210;51.502;10.722;2024-02-26T09:10:20;16.90;;;13.67;;
14251;SDS011;7210;51.502;10.722;2024-02-26T09:12:49;19.40;;;16.00;;
14251;SDS011;7210;51.502;10.722;2024-02-26T09:15:16;21.73;;;16.47;;
14251;SDS011;7210;51.502;10.722;2024-02-26T09:17:43;17.07;;;15.27;;
14251;SDS011;7210;51.502;10.722;2024-02-26T09:20:14;16.43;;;14.43;;
14251;SDS011;7210;51.502;10.722;2024-02-26T09:22:50;17.30;;;15.30;;
14251;SDS011;7210;51.502;10.722;2024-02-26T09:25:20;16.43;;;13.87;;
14251;SDS011;7210;51.502;10.722;2024-02-26T09:27:51;17.83;;;14.30;;
14251;SDS011;7210;51.502;10.722;2024-02-26T09:30:18;17.57;;;15.40;;
14251;SDS011;7210;51.502;10.722;2024-02-26T09:32:49;18.07;;;14.33;;
14251;SDS011;7210;51.502;10.722;2024-02-26T09:35:16;16.70;;;14.50;;
14251;SDS011;7210;51.502;10.722;2024-02-26T09:37:43;19.43;;;16.47;;
14251;SDS011;7210;51.502;10.722;2024-02-26T09:40:14;19.90;;;16.00;;
14251;SDS011;7210;51.502;10.722;2024-02-26T09:42:42;18.67;;;15.77;;
14251;SDS011;7210;51.502;10.722;2024-02-26T09:45:16;18.80;;;15.97;;
14251;SDS011;7210;51.502;10.722;2024-02-26T09:47:45;20.17;;;16.63;;
14251;SDS011;7210;51.502;10.722;2024-02-26T09:50:16;21.77;;;16.60;;
14251;SDS011;7210;51.502;10.722;2024-02-26T09:52:47;19.17;;;15.17;;
14251;SDS011;7210;51.502;10.722;2024-02-26T09:55:15;17.77;;;15.87;;
14251;SDS011;7210;51.502;10.722;2024-02-26T09:57:44;18.30;;;16.40;;
14251;SDS011;7210;51.502;10.722;2024-02-26T10:00:16;18.63;;;16.63;;
14251;SDS011;7210;51.502;10.722;2024-02-26T10:02:45;20.67;;;16.50;;
14251;SDS011;7210;51.502;10.722;2024-02-26T10:05:14;20.67;;;16.30;;
14251;SDS011;7210;51.502;10.722;2024-02-26T10:07:44;18.73;;;16.23;;
14251;SDS011;7210;51.502;10.722;2024-02-26T10:10:12;18.07;;;16.10;;
14251;SDS011;7210;51.502;10.722;2024-02-26T10:12:40;18.87;;;15.77;;
14251;SDS011;7210;51.502;10.722;2024-02-26T10:15:07;18.50;;;16.20;;
14251;SDS011;7210;51.502;10.722;2024-02-26T10:17:39;16.77;;;14.97;;
14251;SDS011;7210;51.502;10.722;2024-02-26T10:20:11;18.57;;;15.37;;
14251;SDS011;7210;51.502;10.722;2024-02-26T10:22:41;20.93;;;15.80;;
14251;SDS011;7210;51.502;10.722;2024-02-26T10:25:08;34.80;;;17.03;;
14251;SDS011;7210;51.502;10.722;2024-02-26T10:27:36;19.33;;;16.53;;
14251;SDS011;7210;51.502;10.722;2024-02-26T10:30:03;16.37;;;14.60;;
14251;SDS011;7210;51.502;10.722;2024-02-26T10:32:43;20.60;;;14.57;;
14251;SDS011;7210;51.502;10.722;2024-02-26T10:35:12;16.87;;;14.50;;
14251;SDS011;7210;51.502;10.722;2024-02-26T10:37:39;16.77;;;15.00;;
14251;SDS011;7210;51.502;10.722;2024-02-26T10:40:09;17.10;;;14.07;;
14251;SDS011;7210;51.502;10.722;2024-02-26T10:42:37;17.73;;;13.87;;
14251;SDS011;7210;51.502;10.722;2024-02-26T10:45:05;15.23;;;13.73;;
14251;SDS011;7210;51.502;10.722;2024-02-26T10:47:38;16.73;;;14.90;;
14251;SDS011;7210;51.502;10.722;2024-02-26T10:50:15;14.87;;;13.37;;
14251;SDS011;7210;51.502;10.722;2024-02-26T10:52:44;15.87;;;13.73;;
14251;SDS011;7210;51.502;10.722;2024-02-26T10:55:13;14.63;;;13.13;;
14251;SDS011;7210;51.502;10.722;2024-02-26T10:57:44;14.43;;;12.37;;
14251;SDS011;7210;51.502;10.722;2024-02-26T11:00:14;14.37;;;12.83;;
14251;SDS011;7210;51.502;10.722;2024-02-26T11:02:42;14.40;;;12.90;;
14251;SDS011;7210;51.502;10.722;2024-02-26T11:05:12;15.60;;;13.23;;
14251;SDS011;7210;51.502;10.722;2024-02-26T11:07:42;14.50;;;13.10;;
14251;SDS011;7210;51.502;10.722;2024-02-26T11:10:12;14.47;;;12.90;;
14251;SDS011;7210;51.502;10.722;2024-02-26T11:12:41;14.37;;;12.47;;
14251;SDS011;7210;51.502;10.722;2024-02-26T11:15:09;14.63;;;12.03;;
14251;SDS011;7210;51.502;10.722;2024-02-26T11:17:37;16.13;;;13.07;;
14251;SDS011;7210;51.502;10.722;2024-02-26T11:20:09;13.47;;;12.07;;
14251;SDS011;7210;51.502;10.722;2024-02-26T11:22:38;14.07;;;11.73;;
14251;SDS011;7210;51.502;10.722;2024-02-26T11:25:07;15.13;;;12.57;;
14251;SDS011;7210;51.502;10.722;2024-02-26T11:27:37;13.13;;;11.77;;
14251;SDS011;7210;51.502;10.722;2024-02-26T11:30:10;12.93;;;11.73;;
14251;SDS011;7210;51.502;10.722;2024-02-26T11:32:43;13.67;;;11.93;;
14251;SDS011;7210;51.502;10.722;2024-02-26T11:35:11;13.90;;;11.73;;
14251;SDS011;7210;51.502;10.722;2024-02-26T11:37:40;14.03;;;12.43;;
14251;SDS011;7210;51.502;10.722;2024-02-26T11:40:18;13.80;;;11.93;;
14251;SDS011;7210;51.502;10.722;2024-02-26T11:42:45;13.43;;;12.03;;
14251;SDS011;7210;51.502;10.722;2024-02-26T11:45:38;13.50;;;12.10;;
14251;SDS011;7210;51.502;10.722;2024-02-26T11:48:19;13.63;;;12.30;;
14251;SDS011;7210;51.502;10.722;2024-02-26T11:50:50;13.10;;;11.67;;
14251;SDS011;7210;51.502;10.722;2024-02-26T11:53:19;12.63;;;11.33;;
14251;SDS011;7210;51.502;10.722;2024-02-26T11:55:49;12.80;;;11.43;;
14251;SDS011;7210;51.502;10.722;2024-02-26T11:59:04;12.93;;;11.50;;
14251;SDS011;7210;51.502;10.722;2024-02-26T12:01:39;13.60;;;11.83;;
14251;SDS011;7210;51.502;10.722;2024-02-26T12:04:09;13.27;;;11.70;;
14251;SDS011;7210;51.502;10.722;2024-02-26T12:06:41;12.90;;;11.53;;
14251;SDS011;7210;51.502;10.722;2024-02-26T12:09:11;13.37;;;11.37;;
14251;SDS011;7210;51.502;10.722;2024-02-26T12:11:41;15.40;;;11.33;;
14251;SDS011;7210;51.502;10.722;2024-02-26T12:14:14;14.07;;;11.50;;
14251;SDS011;7210;51.502;10.722;2024-02-26T12:16:44;12.00;;;10.80;;
14251;SDS011;7210;51.502;10.722;2024-02-26T12:19:12;12.60;;;11.40;;
14251;SDS011;7210;51.502;10.722;2024-02-26T12:21:41;11.70;;;10.60;;
14251;SDS011;7210;51.502;10.722;2024-02-26T12:24:12;13.57;;;11.03;;
14251;SDS011;7210;51.502;10.722;2024-02-26T12:26:45;12.47;;;11.20;;
14251;SDS011;7210;51.502;10.722;2024-02-26T12:29:12;11.47;;;10.37;;
14251;SDS011;7210;51.502;10.722;2024-02-26T12:31:40;12.60;;;10.87;;
14251;SDS011;7210;51.502;10.722;2024-02-26T12:34:08;11.60;;;10.37;;
14251;SDS011;7210;51.502;10.722;2024-02-26T12:36:44;11.90;;;10.73;;
14251;SDS011;7210;51.502;10.722;2024-02-26T12:39:11;12.33;;;9.70;;
14251;SDS011;7210;51.502;10.722;2024-02-26T12:41:45;13.07;;;10.93;;
14251;SDS011;7210;51.502;10.722;2024-02-26T12:44:14;14.30;;;10.83;;
14251;SDS011;7210;51.502;10.722;2024-02-26T12:46:42;11.77;;;10.57;;
14251;SDS011;7210;51.502;10.722;2024-02-26T12:49:09;11.90;;;10.70;;
14251;SDS011;7210;51.502;10.722;2024-02-26T12:51:43;13.40;;;11.50;;
14251;SDS011;7210;51.502;10.722;2024-02-26T12:54:10;11.90;;;10.70;;
14251;SDS011;7210;51.502;10.722;2024-02-26T12:56:39;14.60;;;10.67;;
14251;SDS011;7210;51.502;10.722;2024-02-26T12:59:08;11.50;;;10.30;;
14251;SDS011;7210;51.502;10.722;2024-02-26T13:01:35;12.07;;;10.87;;
14251;SDS011;7210;51.502;10.722;2024-02-26T13:04:03;11.27;;;10.07;;
14251;SDS011;7210;51.502;10.722;2024-02-26T13:06:32;13.07;;;10.80;;
14251;SDS011;7210;51.502;10.722;2024-02-26T13:09:00;12.73;;;10.47;;
14251;SDS011;7210;51.502;10.722;2024-02-26T13:11:28;12.03;;;10.83;;
14251;SDS011;7210;51.502;10.722;2024-02-26T13:13:56;11.60;;;10.40;;
14251;SDS011;7210;51.502;10.722;2024-02-26T13:16:25;11.63;;;10.43;;
14251;SDS011;7210;51.502;10.722;2024-02-26T13:18:52;11.23;;;10.10;;
14251;SDS011;7210;51.502;10.722;2024-02-26T13:21:20;12.50;;;10.60;;
14251;SDS011;7210;51.502;10.722;2024-02-26T13:23:51;11.60;;;10.47;;
14251;SDS011;7210;51.502;10.722;2024-02-26T13:26:21;13.17;;;10.53;;
14251;SDS011;7210;51.502;10.722;2024-02-26T13:28:58;11.43;;;9.07;;
14251;SDS011;7210;51.502;10.722;2024-02-26T13:31:29;11.43;;;10.33;;
14251;SDS011;7210;51.502;10.722;2024-02-26T13:33:56;11.77;;;10.13;;
14251;SDS011;7210;51.502;10.722;2024-02-26T13:36:24;10.97;;;9.73;;
14251;SDS011;7210;51.502;10.722;2024-02-26T13:38:56;10.70;;;9.70;;
14251;SDS011;7210;51.502;10.722;2024-02-26T13:41:23;12.33;;;9.57;;
14251;SDS011;7210;51.502;10.722;2024-02-26T13:43:50;10.40;;;9.10;;
14251;SDS011;7210;51.502;10.722;2024-02-26T13:46:18;11.27;;;9.00;;
14251;SDS011;7210;51.502;10.722;2024-02-26T13:48:46;11.67;;;9.90;;
14251;SDS011;7210;51.502;10.722;2024-02-26T13:51:14;11.03;;;9.60;;
14251;SDS011;7210;51.502;10.722;2024-02-26T13:53:42;10.80;;;9.53;;
14251;SDS011;7210;51.502;10.722;2024-02-26T13:56:09;11.20;;;10.10;;
14251;SDS011;7210;51.502;10.722;2024-02-26T13:58:37;11.03;;;9.87;;
14251;SDS011;7210;51.502;10.722;2024-02-26T14:01:04;8.80;;;8.00;;
14251;SDS011;7210;51.502;10.722;2024-02-26T14:03:31;8.40;;;7.30;;
14251;SDS011;7210;51.502;10.722;2024-02-26T14:06:03;7.87;;;7.07;;
14251;SDS011;7210;51.502;10.722;2024-02-26T14:08:31;7.97;;;7.10;;
14251;SDS011;7210;51.502;10.722;2024-02-26T14:11:08;8.60;;;6.67;;
14251;SDS011;7210;51.502;10.722;2024-02-26T14:13:35;8.30;;;6.90;;
14251;SDS011;7210;51.502;10.722;2024-02-26T14:16:03;7.87;;;7.07;;
14251;SDS011;7210;51.502;10.722;2024-02-26T14:18:32;7.77;;;6.97;;
14251;SDS011;7210;51.502;10.722;2024-02-26T14:20:59;8.60;;;6.60;;
14251;SDS011;7210;51.502;10.722;2024-02-26T14:23:27;8.43;;;6.90;;
14251;SDS011;7210;51.502;10.722;2024-02-26T14:25:54;7.73;;;6.93;;
14251;SDS011;7210;51.502;10.722;2024-02-26T14:28:22;7.93;;;7.13;;
14251;SDS011;7210;51.502;10.722;2024-02-26T14:30:49;8.20;;;7.33;;
14251;SDS011;7210;51.502;10.722;2024-02-26T14:33:16;9.03;;;8.23;;
14251;SDS011;7210;51.502;10.722;2024-02-26T14:35:44;9.03;;;8.07;;
14251;SDS011;7210;51.502;10.722;2024-02-26T14:38:11;8.70;;;7.77;;
14251;SDS011;7210;51.502;10.722;2024-02-26T14:40:39;8.87;;;7.97;;
14251;SDS011;7210;51.502;10.722;2024-02-26T14:43:06;9.60;;;8.20;;
14251;SDS011;7210;51.502;10.722;2024-02-26T14:45:35;8.67;;;7.47;;
14251;SDS011;7210;51.502;10.722;2024-02-26T14:48:03;9.27;;;8.03;;